createdAt,value
2022-11-22T00:02:03.058Z,7.10
2022-11-22T00:04:32.694Z,4.40
2022-11-22T00:07:02.639Z,4.28
2022-11-22T00:09:32.184Z,11.43
2022-11-22T00:12:01.819Z,5.97
2022-11-22T00:14:31.305Z,8.40
2022-11-22T00:17:00.945Z,6.83
2022-11-22T00:19:30.786Z,7.13
2022-11-22T00:22:01.159Z,4.25
2022-11-22T00:24:30.577Z,7.03
2022-11-22T00:27:00.146Z,9.80
2022-11-22T00:29:29.914Z,5.33
2022-11-22T00:31:59.862Z,9.10
2022-11-22T00:34:30.262Z,9.07
2022-11-22T00:36:59.763Z,2.87
2022-11-22T00:39:29.722Z,6.10
2022-11-22T00:41:59.354Z,9.85
2022-11-22T00:44:28.789Z,4.10
2022-11-22T00:46:58.452Z,6.47
2022-11-22T00:49:28.187Z,7.53
2022-11-22T00:51:57.773Z,5.40
2022-11-22T00:54:27.213Z,6.53
2022-11-22T00:56:56.786Z,8.35
2022-11-22T00:59:26.372Z,7.92
2022-11-22T01:01:55.987Z,6.67
2022-11-22T01:04:25.530Z,8.30
2022-11-22T01:06:55.022Z,8.40
2022-11-22T01:09:26.012Z,12.15
2022-11-22T01:11:55.567Z,7.87
2022-11-22T01:14:25.088Z,10.08
2022-11-22T01:16:54.686Z,7.87
2022-11-22T01:19:24.256Z,10.03
2022-11-22T01:21:53.804Z,6.75
2022-11-22T01:24:23.436Z,5.42
2022-11-22T01:26:52.930Z,4.10
2022-11-22T01:29:22.498Z,5.33
2022-11-22T01:31:52.018Z,8.18
2022-11-22T01:34:21.581Z,9.10
2022-11-22T01:36:51.865Z,6.03
2022-11-22T01:39:21.399Z,5.05
2022-11-22T01:41:50.944Z,5.30
2022-11-22T01:44:29.732Z,4.75
2022-11-22T01:47:02.359Z,4.05
2022-11-22T01:49:49.250Z,5.05
2022-11-22T01:52:21.969Z,6.75
2022-11-22T01:55:03.294Z,6.90
2022-11-22T01:57:36.363Z,5.95
2022-11-22T02:00:12.132Z,6.75
2022-11-22T02:02:49.428Z,7.35
2022-11-22T02:05:22.088Z,8.08
2022-11-22T02:08:09.627Z,3.37
2022-11-22T02:10:42.227Z,7.08
2022-11-22T02:13:12.589Z,4.15
2022-11-22T02:15:43.849Z,6.45
2022-11-22T02:18:13.360Z,1.72
2022-11-22T02:20:43.264Z,4.00
2022-11-22T02:23:21.663Z,1.98
2022-11-22T02:25:54.406Z,3.30
2022-11-22T02:28:24.391Z,3.53
2022-11-22T02:30:53.948Z,6.22
2022-11-22T02:33:23.512Z,1.98
2022-11-22T02:35:53.188Z,2.55
2022-11-22T02:38:25.878Z,4.35
2022-11-22T02:40:58.419Z,4.12
2022-11-22T02:43:30.908Z,4.80
2022-11-22T02:46:09.224Z,3.45
2022-11-22T02:48:45.691Z,7.55
2022-11-22T02:51:19.332Z,3.60
2022-11-22T02:53:53.622Z,4.55
2022-11-22T02:56:23.950Z,3.30
2022-11-22T02:58:53.438Z,5.40
2022-11-22T03:01:23.065Z,7.23
2022-11-22T03:03:52.657Z,4.65
2022-11-22T03:06:22.149Z,4.22
2022-11-22T03:08:56.139Z,3.22
2022-11-22T03:11:22.812Z,3.83
2022-11-22T03:13:53.063Z,2.08
2022-11-22T03:16:22.651Z,2.03
2022-11-22T03:18:52.491Z,3.20
2022-11-22T03:21:22.051Z,2.98
2022-11-22T03:25:41.290Z,2.70
2022-11-22T03:28:11.389Z,7.87
2022-11-22T03:30:43.355Z,5.53
2022-11-22T03:33:12.918Z,2.75
2022-11-22T03:35:42.473Z,1.35
2022-11-22T03:38:13.369Z,0.80
2022-11-22T03:40:45.841Z,2.65
2022-11-22T03:43:15.480Z,4.67
2022-11-22T03:45:49.346Z,4.37
2022-11-22T03:48:19.982Z,3.80
2022-11-22T03:50:49.535Z,4.67
2022-11-22T03:53:19.103Z,4.40
2022-11-22T03:55:48.522Z,3.60
2022-11-22T03:58:18.110Z,2.67
2022-11-22T04:00:47.594Z,2.65
2022-11-22T04:03:17.032Z,1.65
2022-11-22T04:05:46.880Z,3.62
2022-11-22T04:08:16.441Z,3.87
2022-11-22T04:10:45.925Z,3.77
2022-11-22T04:13:16.643Z,5.25
2022-11-22T04:15:46.181Z,4.62
2022-11-22T04:18:16.480Z,2.58
2022-11-22T04:21:03.726Z,3.70
2022-11-22T04:23:34.391Z,1.57
2022-11-22T04:26:04.081Z,4.35
2022-11-22T04:29:02.031Z,1.72
2022-11-22T04:31:22.933Z,2.52
2022-11-22T04:33:52.436Z,2.72
2022-11-22T04:36:21.973Z,1.95
2022-11-22T04:38:52.982Z,2.58
2022-11-22T04:41:22.476Z,3.12
2022-11-22T04:44:09.604Z,5.53
2022-11-22T04:46:39.089Z,2.45
2022-11-22T04:49:08.519Z,1.45
2022-11-22T04:51:57.851Z,1.37
2022-11-22T04:54:27.415Z,1.60
2022-11-22T04:56:56.981Z,4.37
2022-11-22T04:59:26.688Z,3.08
2022-11-22T05:01:56.255Z,4.62
2022-11-22T05:04:25.670Z,2.98
2022-11-22T05:06:56.822Z,4.40
2022-11-22T05:09:26.383Z,3.42
2022-11-22T05:11:56.528Z,3.17
2022-11-22T05:14:26.023Z,3.50
2022-11-22T05:16:55.438Z,7.75
2022-11-22T05:19:25.451Z,4.42
2022-11-22T05:21:54.979Z,4.37
2022-11-22T05:24:24.467Z,4.33
2022-11-22T05:26:54.462Z,4.53
2022-11-22T05:29:23.883Z,3.72
2022-11-22T05:31:53.383Z,2.37
2022-11-22T05:34:23.054Z,5.15
2022-11-22T05:36:52.682Z,2.60
2022-11-22T05:39:22.203Z,2.33
2022-11-22T05:41:57.568Z,2.52
2022-11-22T05:44:27.210Z,2.95
2022-11-22T05:46:56.708Z,6.92
2022-11-22T05:49:26.270Z,5.75
2022-11-22T05:51:56.338Z,6.40
2022-11-22T05:54:25.891Z,5.10
2022-11-22T05:56:55.514Z,4.10
2022-11-22T05:59:24.937Z,3.87
2022-11-22T06:01:54.506Z,4.78
2022-11-22T06:04:24.049Z,7.53
2022-11-22T06:06:53.534Z,5.33
2022-11-22T06:09:23.028Z,5.08
2022-11-22T06:11:53.012Z,3.30
2022-11-22T06:14:22.499Z,6.87
2022-11-22T06:16:53.524Z,3.55
2022-11-22T06:19:23.141Z,6.15
2022-11-22T06:21:52.703Z,11.70
2022-11-22T06:24:22.125Z,4.50
2022-11-22T06:26:51.660Z,3.85
2022-11-22T06:29:21.164Z,6.08
2022-11-22T06:31:51.341Z,3.62
2022-11-22T06:34:21.015Z,5.25
2022-11-22T06:36:50.460Z,5.75
2022-11-22T06:39:19.974Z,4.33
2022-11-22T06:41:49.461Z,5.55
2022-11-22T06:44:19.027Z,3.22
2022-11-22T06:46:48.575Z,3.12
2022-11-22T06:49:17.986Z,4.33
2022-11-22T06:51:47.487Z,4.28
2022-11-22T06:54:17.061Z,2.98
2022-11-22T06:56:46.693Z,3.55
2022-11-22T06:59:16.246Z,6.37
2022-11-22T07:01:45.856Z,2.02
2022-11-22T07:04:15.711Z,3.87
2022-11-22T07:06:46.252Z,2.80
2022-11-22T07:09:15.800Z,5.25
2022-11-22T07:11:45.372Z,4.92
2022-11-22T07:14:15.029Z,1.35
2022-11-22T07:16:44.466Z,4.97
2022-11-22T07:19:13.956Z,3.10
2022-11-22T07:21:43.645Z,6.67
2022-11-22T07:24:14.981Z,6.30
2022-11-22T07:26:44.406Z,3.47
2022-11-22T07:29:13.895Z,1.92
2022-11-22T07:31:46.568Z,1.63
2022-11-22T07:34:16.207Z,3.17
2022-11-22T07:36:45.703Z,2.02
2022-11-22T07:39:15.249Z,2.35
2022-11-22T07:41:44.798Z,2.12
2022-11-22T07:44:14.299Z,3.58
2022-11-22T07:46:44.623Z,2.37
2022-11-22T07:49:14.178Z,1.82
2022-11-22T07:51:43.712Z,1.82
2022-11-22T07:54:14.131Z,1.72
2022-11-22T07:56:43.550Z,3.45
2022-11-22T07:59:13.055Z,1.22
2022-11-22T08:01:42.766Z,3.63
2022-11-22T08:04:12.715Z,1.98
2022-11-22T08:06:42.356Z,3.40
2022-11-22T08:09:13.896Z,5.53
2022-11-22T08:11:43.391Z,4.77
2022-11-22T08:14:13.063Z,4.22
2022-11-22T08:16:42.701Z,3.37
2022-11-22T08:19:13.968Z,4.53
2022-11-22T08:21:44.049Z,2.92
2022-11-22T08:24:14.356Z,4.03
2022-11-22T08:26:45.819Z,3.87
2022-11-22T08:29:15.339Z,4.72
2022-11-22T08:31:44.906Z,3.30
2022-11-22T08:34:14.345Z,2.70
2022-11-22T08:36:43.885Z,4.78
2022-11-22T08:39:13.382Z,4.97
2022-11-22T08:41:42.800Z,4.25
2022-11-22T08:44:12.363Z,5.50
2022-11-22T08:46:41.853Z,6.37
2022-11-22T08:49:14.271Z,6.75
2022-11-22T08:51:45.243Z,7.40
2022-11-22T08:54:16.669Z,3.60
2022-11-22T08:56:46.095Z,8.25
2022-11-22T08:59:15.646Z,7.83
2022-11-22T09:01:45.290Z,9.00
2022-11-22T09:04:14.828Z,6.50
2022-11-22T09:09:36.256Z,4.00
2022-11-22T09:11:46.639Z,9.08
2022-11-22T09:14:16.263Z,7.30
2022-11-22T09:16:45.767Z,6.78
2022-11-22T09:19:15.327Z,4.25
2022-11-22T09:21:44.948Z,7.05
2022-11-22T09:24:14.507Z,3.45
2022-11-22T09:26:44.097Z,4.85
2022-11-22T09:29:14.959Z,8.45
2022-11-22T09:31:45.321Z,5.33
2022-11-22T09:34:15.109Z,4.67
2022-11-22T09:36:44.654Z,7.72
2022-11-22T09:39:14.226Z,2.77
2022-11-22T09:42:01.918Z,5.72
2022-11-22T09:44:40.171Z,3.80
2022-11-22T09:47:12.697Z,6.65
2022-11-22T09:50:03.249Z,4.42
2022-11-22T09:52:41.441Z,7.62
2022-11-22T09:55:26.034Z,6.45
2022-11-22T09:58:07.320Z,7.12
2022-11-22T10:00:37.014Z,8.43
2022-11-22T10:03:15.395Z,5.55
2022-11-22T10:05:53.817Z,10.28
2022-11-22T10:08:44.348Z,5.00
2022-11-22T10:11:36.755Z,5.70
2022-11-22T10:14:18.671Z,7.47
2022-11-22T10:17:24.285Z,7.45
2022-11-22T10:19:56.847Z,3.03
2022-11-22T10:22:29.818Z,6.03
2022-11-22T10:25:01.975Z,3.58
2022-11-22T10:27:34.476Z,6.00
2022-11-22T10:30:07.531Z,4.42
2022-11-22T10:32:42.862Z,6.20
2022-11-22T10:35:18.087Z,4.72
2022-11-22T10:38:13.757Z,2.47
2022-11-22T10:40:49.232Z,5.97
2022-11-22T10:43:38.235Z,4.42
2022-11-22T10:46:16.256Z,3.27
2022-11-22T10:48:54.231Z,4.55
2022-11-22T10:51:29.512Z,8.15
2022-11-22T10:54:04.963Z,5.62
2022-11-22T10:56:50.781Z,3.62
2022-11-22T10:59:30.136Z,7.17
2022-11-22T11:02:06.015Z,6.33
2022-11-22T11:04:38.742Z,6.53
2022-11-22T11:07:12.769Z,3.85
2022-11-22T11:10:10.112Z,4.65
2022-11-22T11:12:51.691Z,3.40
2022-11-22T11:15:39.174Z,4.22
2022-11-22T11:18:11.736Z,4.72
2022-11-22T11:20:43.856Z,6.55
2022-11-22T11:23:15.185Z,6.13
2022-11-22T11:25:46.730Z,4.78
2022-11-22T11:28:25.340Z,5.50
2022-11-22T11:30:57.823Z,2.90
2022-11-22T11:33:33.505Z,4.75
2022-11-22T11:36:18.889Z,4.05
2022-11-22T11:38:51.411Z,4.78
2022-11-22T11:43:56.659Z,5.53
2022-11-22T11:46:28.619Z,3.80
2022-11-22T11:49:16.383Z,4.23
2022-11-22T11:51:48.623Z,4.75
2022-11-22T11:54:23.802Z,4.97
2022-11-22T11:57:04.814Z,5.62
2022-11-22T11:59:40.170Z,3.55
2022-11-22T12:02:18.832Z,5.17
2022-11-22T12:05:03.777Z,5.73
2022-11-22T12:07:39.375Z,8.73
2022-11-22T12:10:29.851Z,7.05
2022-11-22T12:13:04.596Z,6.30
2022-11-22T12:15:52.943Z,4.30
2022-11-22T12:18:56.567Z,4.65
2022-11-22T12:21:43.719Z,5.33
2022-11-22T12:26:48.283Z,7.62
2022-11-22T12:29:18.130Z,15.32
2022-11-22T12:31:56.487Z,7.92
2022-11-22T12:34:33.380Z,7.83
2022-11-22T12:37:06.641Z,8.55
2022-11-22T12:42:09.842Z,6.33
2022-11-22T12:44:42.407Z,6.67
2022-11-22T12:47:16.051Z,3.98
2022-11-22T12:49:48.547Z,5.87
2022-11-22T12:52:43.902Z,3.62
2022-11-22T12:55:22.396Z,9.50
2022-11-22T12:58:06.724Z,5.00
2022-11-22T13:00:39.632Z,10.00
2022-11-22T13:03:14.862Z,4.95
2022-11-22T13:05:50.290Z,6.17
2022-11-22T13:08:43.391Z,6.12
2022-11-22T13:11:18.480Z,5.55
2022-11-22T13:13:50.970Z,9.10
2022-11-22T13:16:20.530Z,6.78
2022-11-22T13:18:53.062Z,6.33
2022-11-22T13:21:28.590Z,9.80
2022-11-22T13:24:03.864Z,10.88
2022-11-22T13:26:39.086Z,8.75
2022-11-22T13:29:14.580Z,6.97
2022-11-22T13:32:04.842Z,7.90
2022-11-22T13:34:36.482Z,8.88
2022-11-22T13:37:14.762Z,5.95
2022-11-22T13:39:47.170Z,6.95
2022-11-22T13:42:22.713Z,8.40
2022-11-22T13:44:58.140Z,5.85
2022-11-22T13:47:36.947Z,7.00
2022-11-22T13:50:44.657Z,7.83
2022-11-22T13:53:25.974Z,5.50
2022-11-22T13:55:56.406Z,10.80
2022-11-22T13:58:28.888Z,6.58
2022-11-22T14:01:00.024Z,7.03
2022-11-22T14:03:38.251Z,5.30
2022-11-22T14:06:26.658Z,6.92
2022-11-22T14:09:17.564Z,7.03
2022-11-22T14:11:50.165Z,6.97
2022-11-22T14:14:29.076Z,8.00
2022-11-22T14:17:20.646Z,7.70
2022-11-22T14:20:22.103Z,6.50
2022-11-22T14:22:57.468Z,6.97
2022-11-22T14:25:46.486Z,6.92
2022-11-22T14:28:27.764Z,2.83
2022-11-22T14:30:59.624Z,10.38
2022-11-22T14:33:30.321Z,7.63
2022-11-22T14:36:11.884Z,8.25
2022-11-22T14:38:44.060Z,7.90
2022-11-22T14:41:37.772Z,7.53
2022-11-22T14:44:10.482Z,8.00
2022-11-22T14:46:53.289Z,6.50
2022-11-22T14:49:35.421Z,7.20
2022-11-22T14:52:07.957Z,6.45
2022-11-22T14:54:40.558Z,11.95
2022-11-22T14:57:13.059Z,6.15
2022-11-22T15:00:02.212Z,7.75
2022-11-22T15:02:49.493Z,8.43
2022-11-22T15:09:14.915Z,11.90
2022-11-22T15:09:21.465Z,10.53
2022-11-22T15:11:05.789Z,10.32
2022-11-22T15:13:44.007Z,14.68
2022-11-22T15:57:35.475Z,15.35
2022-11-22T16:00:11.434Z,16.95
2022-11-22T16:02:43.931Z,11.53
2022-11-22T16:07:48.980Z,15.83
2022-11-22T16:10:27.714Z,16.27
2022-11-22T16:12:57.282Z,16.57
2022-11-22T16:15:34.171Z,17.32
2022-11-22T16:18:09.435Z,10.53
2022-11-22T16:20:41.457Z,12.80
2022-11-22T16:23:14.023Z,12.70
2022-11-22T16:25:47.281Z,11.05
2022-11-22T16:30:55.911Z,14.10
2022-11-22T16:33:26.365Z,7.37
2022-11-22T16:35:58.868Z,9.60
2022-11-22T16:38:30.303Z,7.60
2022-11-22T16:41:02.386Z,20.90
2022-11-22T16:43:34.895Z,35.73
2022-11-22T16:46:05.557Z,72.87
2022-11-22T16:48:35.370Z,60.10
2022-11-22T16:51:08.088Z,37.48
2022-11-22T16:53:46.069Z,47.90
2022-11-22T16:56:21.527Z,45.10
2022-11-22T16:58:52.903Z,49.98
2022-11-22T17:01:26.459Z,54.53
2022-11-22T17:03:58.906Z,40.83
2022-11-22T17:06:31.532Z,34.03
2022-11-22T17:09:01.707Z,42.83
2022-11-22T17:11:32.942Z,38.42
2022-11-22T17:14:02.517Z,44.23
2022-11-22T17:16:32.160Z,62.88
2022-11-22T17:19:01.694Z,52.45
2022-11-22T17:21:37.640Z,46.33
2022-11-22T17:24:08.610Z,40.55
2022-11-22T17:26:38.063Z,48.23
2022-11-22T17:29:11.169Z,44.57
2022-11-22T17:31:39.011Z,46.08
2022-11-22T17:34:09.966Z,43.98
2022-11-22T17:36:40.361Z,40.75
2022-11-22T17:39:12.871Z,43.60
2022-11-22T17:41:43.725Z,41.45
2022-11-22T17:44:16.362Z,38.25
2022-11-22T17:46:47.883Z,33.02
2022-11-22T17:49:17.418Z,33.28
2022-11-22T17:51:48.541Z,33.70
2022-11-22T17:54:17.979Z,41.65
2022-11-22T17:56:47.397Z,42.00
2022-11-22T17:59:17.076Z,28.00
2022-11-22T18:01:46.632Z,29.18
2022-11-22T18:04:17.997Z,33.55
2022-11-22T18:06:47.497Z,33.18
2022-11-22T18:09:17.006Z,29.25
2022-11-22T18:11:47.897Z,29.52
2022-11-22T18:14:17.417Z,35.30
2022-11-22T18:16:46.912Z,38.75
2022-11-22T18:19:16.438Z,35.43
2022-11-22T18:21:45.945Z,30.25
2022-11-22T18:24:15.386Z,30.60
2022-11-22T18:26:45.106Z,25.95
2022-11-22T18:29:41.228Z,26.10
2022-11-22T18:31:53.198Z,24.37
2022-11-22T18:34:20.367Z,34.20
2022-11-22T18:36:56.003Z,35.50
2022-11-22T18:39:24.079Z,28.30
2022-11-22T18:41:53.696Z,28.93
2022-11-22T18:44:23.182Z,29.72
2022-11-22T18:46:53.298Z,33.15
2022-11-22T18:49:23.644Z,72.65
2022-11-22T18:51:53.185Z,40.03
2022-11-22T18:54:22.943Z,29.45
2022-11-22T18:56:53.652Z,25.48
2022-11-22T18:59:23.186Z,22.85
2022-11-22T19:01:53.761Z,32.60
2022-11-22T19:04:23.318Z,36.68
2022-11-22T19:06:52.935Z,31.23
2022-11-22T19:09:22.462Z,43.63
2022-11-22T19:11:57.083Z,38.23
2022-11-22T19:14:24.845Z,36.30
2022-11-22T19:16:54.402Z,32.70
2022-11-22T19:19:24.847Z,30.70
2022-11-22T19:21:54.401Z,26.50
2022-11-22T19:24:23.957Z,33.33
2022-11-22T19:26:54.240Z,31.82
2022-11-22T19:29:24.604Z,34.53
2022-11-22T19:31:54.259Z,31.73
2022-11-22T19:34:23.957Z,35.50
2022-11-22T19:36:53.474Z,41.90
2022-11-22T19:39:22.917Z,34.50
2022-11-22T19:41:52.433Z,38.05
2022-11-22T19:44:22.775Z,28.38
2022-11-22T19:46:52.376Z,26.50
2022-11-22T19:49:21.904Z,25.95
2022-11-22T19:51:51.367Z,28.77
2022-11-22T19:54:20.998Z,29.65
2022-11-22T19:56:50.511Z,28.20
2022-11-22T19:59:21.072Z,25.72
2022-11-22T20:01:50.573Z,27.42
2022-11-22T20:04:20.196Z,24.60
2022-11-22T20:06:50.474Z,31.07
2022-11-22T20:09:20.409Z,27.67
2022-11-22T20:11:49.921Z,32.88
2022-11-22T20:14:19.415Z,39.25
2022-11-22T20:16:48.920Z,32.75
2022-11-22T20:19:18.512Z,34.45
2022-11-22T20:21:49.649Z,36.75
2022-11-22T20:24:19.198Z,42.90
2022-11-22T20:26:48.696Z,46.92
2022-11-22T20:29:19.758Z,35.23
2022-11-22T20:31:50.240Z,32.60
2022-11-22T20:34:21.324Z,30.02
2022-11-22T20:36:50.916Z,39.65
2022-11-22T20:39:20.410Z,37.60
2022-11-22T20:42:05.879Z,38.67
2022-11-22T20:44:24.647Z,39.67
2022-11-22T20:46:52.670Z,37.42
2022-11-22T20:49:23.874Z,33.58
2022-11-22T20:51:53.493Z,40.17
2022-11-22T20:54:23.067Z,35.17
2022-11-22T20:56:52.493Z,36.15
2022-11-22T20:59:22.121Z,31.93
2022-11-22T21:01:53.361Z,40.70
2022-11-22T21:04:23.006Z,30.08
2022-11-22T21:06:52.578Z,35.15
2022-11-22T21:09:22.235Z,46.45
2022-11-22T21:11:51.815Z,41.75
2022-11-22T21:14:21.392Z,34.63
2022-11-22T21:16:50.922Z,31.15
2022-11-22T21:19:20.509Z,31.60
2022-11-22T21:21:49.938Z,24.43
2022-11-22T21:24:19.574Z,25.48
2022-11-22T21:26:50.946Z,26.33
2022-11-22T21:29:20.499Z,22.22
2022-11-22T21:31:50.114Z,24.52
2022-11-22T21:34:19.557Z,20.20
2022-11-22T21:36:49.024Z,17.85
2022-11-22T21:39:18.543Z,14.50
2022-11-22T21:41:48.033Z,21.23
2022-11-22T21:44:18.216Z,22.87
2022-11-22T21:46:47.827Z,17.90
2022-11-22T21:49:17.262Z,18.17
2022-11-22T21:51:48.664Z,13.75
2022-11-22T21:54:18.463Z,12.45
2022-11-22T21:56:47.977Z,16.80
2022-11-22T21:59:17.753Z,18.77
2022-11-22T22:01:47.233Z,21.05
2022-11-22T22:04:16.908Z,22.67
2022-11-22T22:06:46.451Z,14.23
2022-11-22T22:09:15.926Z,12.85
2022-11-22T22:11:47.189Z,10.58
2022-11-22T22:14:16.790Z,13.30
2022-11-22T22:16:46.434Z,11.45
2022-11-22T22:19:17.419Z,10.15
2022-11-22T22:21:47.947Z,8.48
2022-11-22T22:24:17.482Z,13.43
2022-11-22T22:26:47.047Z,13.30
2022-11-22T22:29:16.686Z,10.83
2022-11-22T22:31:46.137Z,9.75
2022-11-22T22:34:16.351Z,13.78
2022-11-22T22:36:47.057Z,12.23
2022-11-22T22:39:16.632Z,9.43
2022-11-22T22:41:46.188Z,13.38
2022-11-22T22:44:15.715Z,8.97
2022-11-22T22:46:45.267Z,10.13
2022-11-22T22:49:14.712Z,12.23
2022-11-22T22:51:44.273Z,12.25
2022-11-22T22:54:13.912Z,10.48
2022-11-22T22:56:45.470Z,10.63
2022-11-22T22:59:14.893Z,9.93
2022-11-22T23:01:44.468Z,9.38
2022-11-22T23:04:13.944Z,12.63
2022-11-22T23:06:43.455Z,9.48
2022-11-22T23:09:13.704Z,10.30
2022-11-22T23:12:01.415Z,10.80
2022-11-22T23:14:31.202Z,9.95
2022-11-22T23:17:00.696Z,10.90
2022-11-22T23:19:30.572Z,11.75
2022-11-22T23:22:00.403Z,13.50
2022-11-22T23:24:34.585Z,14.70
2022-11-22T23:27:04.161Z,10.35
2022-11-22T23:29:36.087Z,10.80
2022-11-22T23:32:05.853Z,13.43
2022-11-22T23:34:35.305Z,10.78
2022-11-22T23:37:04.841Z,10.43
2022-11-22T23:39:34.343Z,11.43
2022-11-22T23:42:04.712Z,10.60
2022-11-22T23:44:34.205Z,10.55
2022-11-22T23:47:03.780Z,11.08
2022-11-22T23:49:33.566Z,8.53
2022-11-22T23:52:03.579Z,7.28
2022-11-22T23:54:33.133Z,8.10
2022-11-22T23:57:02.628Z,6.10
2022-11-22T23:59:33.038Z,9.53
